Time;durP1;ratioP1;P1;durP2;ratioP2;P2;SDS_P1;SDS_P2;PMS_P1;PMS_P2;Temp;Humidity;BMP_temperature;BMP_pressure;BME280_temperature;BME280_humidity;BME280_pressure;Samples;Min_cycle;Max_cycle;Signal;HPM_P1;HPM_P2
2021/01/12 00:01:02;;;;;;;14.40;12.02;;;;;;;10.73;nan;100378.38;4974501;28;97308;-71
2021/01/12 00:03:30;;;;;;;17.83;12.50;;;;;;;10.75;nan;100375.81;4975255;28;99326;-71
2021/01/12 00:05:58;;;;;;;15.38;11.63;;;;;;;10.78;nan;100368.09;4955607;28;99143;-72
2021/01/12 00:08:26;;;;;;;19.27;11.60;;;;;;;10.79;nan;100368.16;4966489;28;99289;-72
2021/01/12 00:10:54;;;;;;;14.43;11.32;;;;;;;10.76;nan;100372.38;4974715;28;97657;-70
2021/01/12 00:13:22;;;;;;;16.77;11.65;;;;;;;10.74;nan;100366.16;4958537;28;97926;-70
2021/01/12 00:15:49;;;;;;;14.38;10.50;;;;;;;10.71;nan;100363.41;4972638;28;97894;-70
2021/01/12 00:18:17;;;;;;;13.23;10.68;;;;;;;10.67;nan;100367.63;4977015;28;97241;-70
2021/01/12 00:20:45;;;;;;;14.73;10.93;;;;;;;10.64;nan;100350.78;4959008;28;96887;-70
2021/01/12 00:23:12;;;;;;;14.82;10.98;;;;;;;10.55;nan;100340.78;4977291;28;97194;-71
2021/01/12 00:25:41;;;;;;;14.07;11.10;;;;;;;10.48;nan;100337.78;4974556;28;100140;-71
2021/01/12 00:28:08;;;;;;;14.90;10.85;;;;;;;10.40;nan;100336.56;4975385;28;99068;-71
2021/01/12 00:30:35;;;;;;;16.90;11.77;;;;;;;10.29;nan;100335.16;4958021;28;97524;-72
2021/01/12 00:33:03;;;;;;;13.75;11.18;;;;;;;10.29;nan;100338.69;4976599;28;96970;-71
2021/01/12 00:35:30;;;;;;;16.80;11.60;;;;;;;10.26;nan;100335.91;4976435;28;96987;-71
2021/01/12 00:38:09;;;;;;;17.52;11.65;;;;;;;10.23;nan;100335.75;4958876;28;97812;-71
2021/01/12 00:40:37;;;;;;;12.40;11.13;;;;;;;10.10;nan;100329.03;4973617;28;98048;-70
2021/01/12 00:43:05;;;;;;;13.70;10.88;;;;;;;10.00;nan;100326.75;4956876;28;97485;-71
2021/01/12 00:45:32;;;;;;;16.77;10.88;;;;;;;9.96;nan;100331.78;4974847;28;98849;-71
2021/01/12 00:48:00;;;;;;;14.85;11.70;;;;;;;9.88;nan;100317.41;4976007;28;98083;-70
2021/01/12 00:50:28;;;;;;;17.73;12.68;;;;;;;9.88;nan;100315.69;4957753;28;97938;-71
2021/01/12 00:52:56;;;;;;;16.17;12.20;;;;;;;9.89;nan;100319.22;4977019;28;97558;-71
2021/01/12 00:55:23;;;;;;;14.52;11.15;;;;;;;9.90;nan;100313.13;4973770;28;97338;-71
2021/01/12 00:57:51;;;;;;;17.40;12.20;;;;;;;9.94;nan;100302.88;4975153;28;97890;-72
2021/01/12 01:00:20;;;;;;;16.05;12.43;;;;;;;9.99;nan;100296.13;4975334;28;97375;-71
2021/01/12 01:02:48;;;;;;;13.45;10.88;;;;;;;10.05;nan;100301.63;4976569;28;98034;-70
2021/01/12 01:05:16;;;;;;;15.82;12.02;;;;;;;10.08;nan;100291.28;4975754;28;98272;-70
2021/01/12 01:07:47;;;;;;;17.75;11.75;;;;;;;10.10;nan;100287.06;4958003;28;97820;-70
2021/01/12 01:10:14;;;;;;;16.42;11.48;;;;;;;10.11;nan;100278.34;4973700;28;97604;-73
2021/01/12 01:12:42;;;;;;;17.90;12.40;;;;;;;10.17;nan;100282.97;4974070;28;96775;-69
2021/01/12 01:15:10;;;;;;;15.27;11.70;;;;;;;10.24;nan;100290.31;4972830;28;99671;-71
2021/01/12 01:17:38;;;;;;;14.48;11.43;;;;;;;10.29;nan;100285.28;4974334;28;98252;-71
2021/01/12 01:20:07;;;;;;;16.10;11.65;;;;;;;10.32;nan;100280.16;4974843;28;97409;-71
2021/01/12 01:22:35;;;;;;;15.50;11.50;;;;;;;10.39;nan;100274.34;4974770;28;96736;-72
2021/01/12 01:25:03;;;;;;;18.23;12.05;;;;;;;10.43;nan;100276.31;4975449;28;98023;-71
2021/01/12 01:27:32;;;;;;;16.25;11.48;;;;;;;10.47;nan;100271.28;4970850;28;97376;-72
2021/01/12 01:30:00;;;;;;;15.05;11.50;;;;;;;10.49;nan;100259.06;4973768;28;97538;-71
2021/01/12 01:32:28;;;;;;;16.00;11.65;;;;;;;10.52;nan;100255.69;4956813;28;96910;-72
2021/01/12 01:34:57;;;;;;;16.13;11.68;;;;;;;10.53;nan;100247.00;4976123;28;98068;-71
2021/01/12 01:37:24;;;;;;;16.38;11.82;;;;;;;10.58;nan;100240.22;4975057;28;97877;-71
2021/01/12 01:39:51;;;;;;;16.38;12.38;;;;;;;10.60;nan;100235.94;4976765;28;97202;-71
2021/01/12 01:42:19;;;;;;;16.05;11.27;;;;;;;10.62;nan;100240.41;4974872;28;97662;-72
2021/01/12 01:44:47;;;;;;;17.48;12.43;;;;;;;10.58;nan;100238.50;4956439;28;98278;-72
2021/01/12 01:47:20;;;;;;;16.00;11.50;;;;;;;10.62;nan;100235.16;4972715;28;97066;-72
2021/01/12 01:49:47;;;;;;;15.55;11.40;;;;;;;10.62;nan;100229.91;4974737;28;97177;-71
2021/01/12 01:52:16;;;;;;;14.27;11.18;;;;;;;10.65;nan;100224.81;4957835;28;97072;-72
2021/01/12 01:54:44;;;;;;;12.80;10.38;;;;;;;10.67;nan;100233.66;4957072;28;98988;-72
2021/01/12 01:57:12;;;;;;;12.07;9.70;;;;;;;10.66;nan;100221.34;4973114;28;99520;-72
2021/01/12 01:59:39;;;;;;;11.18;10.05;;;;;;;10.66;nan;100223.06;4971013;28;97152;-72
2021/01/12 02:02:07;;;;;;;11.68;10.13;;;;;;;10.67;nan;100214.38;4974040;28;97512;-71
2021/01/12 02:04:38;;;;;;;11.70;10.45;;;;;;;10.73;nan;100209.38;4975334;28;97972;-72
2021/01/12 02:07:06;;;;;;;11.18;9.73;;;;;;;10.72;nan;100207.56;4957262;28;97726;-71
2021/01/12 02:09:38;;;;;;;9.85;8.85;;;;;;;10.68;nan;100198.66;4956742;28;97208;-72
2021/01/12 02:12:12;;;;;;;8.77;7.95;;;;;;;10.68;nan;100192.50;4976051;28;98958;-72
2021/01/12 02:14:40;;;;;;;9.68;8.60;;;;;;;10.64;nan;100190.56;4974349;28;98249;-72
2021/01/12 02:17:09;;;;;;;7.82;7.05;;;;;;;10.58;nan;100177.19;4974724;28;97989;-71
2021/01/12 02:19:38;;;;;;;7.65;7.00;;;;;;;10.52;nan;100176.94;4974173;28;98773;-72
2021/01/12 02:22:07;;;;;;;7.57;6.80;;;;;;;10.51;nan;100181.28;4975612;28;97498;-72
2021/01/12 02:24:36;;;;;;;7.80;6.60;;;;;;;10.44;nan;100180.97;4974693;28;99882;-72
2021/01/12 02:27:05;;;;;;;8.15;7.28;;;;;;;10.47;nan;100170.59;4957288;28;99054;-72
2021/01/12 02:29:33;;;;;;;7.80;7.07;;;;;;;10.37;nan;100169.28;4974103;28;97473;-71
2021/01/12 02:32:00;;;;;;;8.43;7.65;;;;;;;10.40;nan;100158.03;4978249;28;97752;-71
2021/01/12 02:34:29;;;;;;;8.00;7.25;;;;;;;10.39;nan;100157.13;4943615;28;100643;-71
2021/01/12 02:36:57;;;;;;;7.53;6.93;;;;;;;10.36;nan;100156.09;4977707;28;97638;-71
2021/01/12 02:39:24;;;;;;;8.68;7.35;;;;;;;10.27;nan;100153.97;4977810;28;98177;-71
2021/01/12 02:41:53;;;;;;;7.90;7.05;;;;;;;10.30;nan;100146.22;4977619;28;97971;-71
2021/01/12 02:44:39;;;;;;;8.13;7.43;;;;;;;10.29;nan;100140.91;4977566;28;97967;-72
2021/01/12 02:47:07;;;;;;;8.35;7.53;;;;;;;10.28;nan;100136.47;4960215;28;99501;-72
2021/01/12 02:49:35;;;;;;;8.32;7.63;;;;;;;10.31;nan;100134.88;4977431;28;97348;-72
2021/01/12 02:52:21;;;;;;;7.85;7.15;;;;;;;10.30;nan;100127.84;4978034;28;96922;-71
2021/01/12 02:54:48;;;;;;;7.20;6.60;;;;;;;10.26;nan;100125.00;4958157;28;97911;-71
2021/01/12 02:57:17;;;;;;;8.35;7.65;;;;;;;10.33;nan;100121.84;4978959;28;99443;-71
2021/01/12 02:59:44;;;;;;;8.13;7.32;;;;;;;10.31;nan;100113.88;4958957;28;97774;-72
2021/01/12 03:02:12;;;;;;;7.68;6.95;;;;;;;10.35;nan;100104.41;4956336;28;98037;-72
2021/01/12 03:04:39;;;;;;;7.05;6.45;;;;;;;10.36;nan;100104.50;4976229;28;99518;-71
2021/01/12 03:07:07;;;;;;;7.93;6.93;;;;;;;10.39;nan;100098.47;4955304;28;99322;-72
2021/01/12 03:09:35;;;;;;;8.25;7.45;;;;;;;10.41;nan;100088.91;4975769;28;98139;-72
2021/01/12 03:12:03;;;;;;;8.45;7.30;;;;;;;10.42;nan;100094.22;4977128;28;98020;-72
2021/01/12 03:14:31;;;;;;;8.70;8.00;;;;;;;10.44;nan;100089.06;4954545;28;98982;-71
2021/01/12 03:16:59;;;;;;;7.35;6.60;;;;;;;10.43;nan;100082.00;4974604;28;97581;-72
2021/01/12 03:19:27;;;;;;;7.80;7.10;;;;;;;10.46;nan;100079.50;4958066;28;97613;-71
2021/01/12 03:21:55;;;;;;;6.47;5.88;;;;;;;10.44;nan;100075.94;4976719;28;97141;-72
2021/01/12 03:24:22;;;;;;;6.88;6.28;;;;;;;10.47;nan;100070.81;4975653;28;98039;-72
2021/01/12 03:26:50;;;;;;;7.18;6.57;;;;;;;10.44;nan;100068.06;4975373;28;100121;-72
2021/01/12 03:29:17;;;;;;;6.45;5.93;;;;;;;10.45;nan;100056.72;4959978;28;98141;-72
2021/01/12 03:31:45;;;;;;;6.75;6.15;;;;;;;10.50;nan;100057.81;4975598;28;97337;-73
2021/01/12 03:34:13;;;;;;;7.03;6.22;;;;;;;10.52;nan;100056.13;4943497;28;99342;-71
2021/01/12 03:36:40;;;;;;;6.20;5.70;;;;;;;10.54;nan;100042.25;4977858;28;99074;-71
2021/01/12 03:39:08;;;;;;;6.75;6.25;;;;;;;10.51;nan;100039.47;4977353;28;97454;-71
2021/01/12 03:41:54;;;;;;;7.32;6.70;;;;;;;10.56;nan;100043.22;4975717;28;97196;-72
2021/01/12 03:44:22;;;;;;;6.70;6.10;;;;;;;10.57;nan;100028.34;4959330;28;97645;-72
2021/01/12 03:46:50;;;;;;;6.60;6.00;;;;;;;10.56;nan;100032.72;4954201;28;98175;-71
2021/01/12 03:49:22;;;;;;;7.15;6.45;;;;;;;10.57;nan;100025.72;4963307;28;97494;-72
2021/01/12 03:51:49;;;;;;;6.38;5.93;;;;;;;10.61;nan;100025.91;4956843;28;97391;-71
2021/01/12 03:54:17;;;;;;;6.22;5.72;;;;;;;10.58;nan;100020.53;4976422;28;97878;-71
2021/01/12 03:56:44;;;;;;;7.07;6.47;;;;;;;10.63;nan;100023.34;4977443;28;99184;-71
2021/01/12 03:59:12;;;;;;;6.43;5.90;;;;;;;10.63;nan;100023.34;4976615;28;97173;-70
2021/01/12 04:01:42;;;;;;;6.63;6.00;;;;;;;10.61;nan;100012.78;4973376;28;97265;-71
2021/01/12 04:04:11;;;;;;;7.18;6.57;;;;;;;10.59;nan;100006.56;4959108;28;97725;-71
2021/01/12 04:06:39;;;;;;;6.50;6.00;;;;;;;10.59;nan;100022.31;4976838;28;99957;-71
2021/01/12 04:09:06;;;;;;;6.03;5.53;;;;;;;10.53;nan;100003.69;4975315;28;97173;-71
2021/01/12 04:11:36;;;;;;;7.15;6.55;;;;;;;10.59;nan;99997.78;4973835;28;98555;-71
2021/01/12 04:14:05;;;;;;;6.38;5.80;;;;;;;10.56;nan;100005.56;4976852;28;97896;-70
2021/01/12 04:16:32;;;;;;;6.07;5.68;;;;;;;10.53;nan;99994.94;4974147;28;98265;-71
2021/01/12 04:19:00;;;;;;;6.72;6.13;;;;;;;10.51;nan;99994.84;4975441;28;97210;-70
2021/01/12 04:21:29;;;;;;;6.60;6.05;;;;;;;10.53;nan;99990.56;4960258;28;97771;-71
2021/01/12 04:23:56;;;;;;;6.30;5.80;;;;;;;10.57;nan;99989.84;4970383;28;99432;-70
2021/01/12 04:26:24;;;;;;;7.15;6.53;;;;;;;10.58;nan;99985.50;4958475;28;96938;-71
2021/01/12 04:28:51;;;;;;;6.68;6.20;;;;;;;10.52;nan;99985.25;4975118;28;98242;-71
2021/01/12 04:31:19;;;;;;;6.53;5.78;;;;;;;10.56;nan;99993.31;4978309;28;97996;-71
2021/01/12 04:33:47;;;;;;;5.90;5.50;;;;;;;10.56;nan;99985.44;4974815;28;98686;-71
2021/01/12 04:36:14;;;;;;;5.55;5.10;;;;;;;10.57;nan;99974.09;4977779;28;99128;-71
2021/01/12 04:38:43;;;;;;;6.15;5.75;;;;;;;10.54;nan;99978.31;4975916;28;97165;-71
2021/01/12 04:41:29;;;;;;;5.38;4.97;;;;;;;10.54;nan;99963.47;4976957;28;97460;-71
2021/01/12 04:43:56;;;;;;;5.82;5.43;;;;;;;10.52;nan;99972.13;4974758;28;99188;-70
2021/01/12 04:46:24;;;;;;;5.90;5.43;;;;;;;10.55;nan;99957.38;4958471;28;99518;-70
2021/01/12 04:48:51;;;;;;;5.03;4.63;;;;;;;10.54;nan;99947.72;4958525;28;97604;-70
2021/01/12 04:51:24;;;;;;;6.20;5.70;;;;;;;10.54;nan;99949.44;4958202;28;97698;-71
2021/01/12 04:53:53;;;;;;;5.78;5.28;;;;;;;10.55;nan;99939.00;4974940;28;97519;-71
2021/01/12 04:56:21;;;;;;;6.03;5.53;;;;;;;10.60;nan;99939.19;4944148;28;100058;-70
2021/01/12 04:58:50;;;;;;;5.72;5.32;;;;;;;10.59;nan;99940.00;4974926;28;98280;-71
2021/01/12 05:01:25;;;;;;;6.03;5.50;;;;;;;10.52;nan;99930.09;4974511;28;97306;-71
2021/01/12 05:03:56;;;;;;;6.15;5.65;;;;;;;10.53;nan;99922.28;4960850;28;97709;-69
2021/01/12 05:06:26;;;;;;;6.00;5.55;;;;;;;10.56;nan;99922.44;4957856;28;98934;-70
2021/01/12 05:09:05;;;;;;;5.55;5.15;;;;;;;10.52;nan;99922.22;4959041;28;98057;-70
2021/01/12 05:11:34;;;;;;;6.00;5.60;;;;;;;10.53;nan;99921.41;4975776;28;97838;-69
2021/01/12 05:14:04;;;;;;;5.72;5.32;;;;;;;10.49;nan;99924.75;4974116;28;97155;-69
2021/01/12 05:16:48;;;;;;;6.43;5.90;;;;;;;10.52;nan;99919.59;4972234;28;98874;-71
2021/01/12 05:19:21;;;;;;;5.78;5.38;;;;;;;10.50;nan;99906.41;4954567;28;97813;-69
2021/01/12 05:21:50;;;;;;;6.10;5.50;;;;;;;10.53;nan;99903.91;4975647;28;97278;-70
2021/01/12 05:24:19;;;;;;;5.68;5.20;;;;;;;10.55;nan;99891.72;4957008;28;98108;-71
2021/01/12 05:26:48;;;;;;;5.68;5.28;;;;;;;10.55;nan;99888.19;4975303;28;98033;-69
2021/01/12 05:29:16;;;;;;;5.68;5.20;;;;;;;10.49;nan;99891.47;4974774;28;97885;-71
2021/01/12 05:31:45;;;;;;;5.70;5.40;;;;;;;10.51;nan;99886.31;4975518;28;98008;-71
2021/01/12 05:34:16;;;;;;;6.18;5.68;;;;;;;10.47;nan;99873.91;4975056;28;98066;-70
2021/01/12 05:36:49;;;;;;;6.05;5.65;;;;;;;10.43;nan;99879.88;4975537;28;98271;-71
2021/01/12 05:39:20;;;;;;;6.25;5.38;;;;;;;10.40;nan;99867.50;4957193;28;97276;-70
2021/01/12 05:41:48;;;;;;;5.53;5.13;;;;;;;10.43;nan;99870.25;4975355;28;98137;-72
2021/01/12 05:44:20;;;;;;;5.97;5.60;;;;;;;10.40;nan;99875.38;4974246;28;97319;-69
2021/01/12 05:46:49;;;;;;;6.10;5.60;;;;;;;10.41;nan;99863.16;4973823;28;97089;-70
2021/01/12 05:49:17;;;;;;;5.53;5.10;;;;;;;10.37;nan;99861.25;4956659;28;96985;-69
2021/01/12 05:51:46;;;;;;;5.97;5.40;;;;;;;10.38;nan;99852.53;4958173;28;98205;-68
2021/01/12 05:54:36;;;;;;;6.78;6.18;;;;;;;10.34;nan;99861.13;4974854;28;97848;-71
2021/01/12 05:57:14;;;;;;;6.25;5.75;;;;;;;10.33;nan;99852.34;4969311;28;98549;-71
2021/01/12 05:59:48;;;;;;;6.45;5.95;;;;;;;10.31;nan;99838.28;4975329;28;97297;-71
2021/01/12 06:02:15;;;;;;;6.32;5.82;;;;;;;10.29;nan;99841.69;4951544;28;96851;-71
2021/01/12 06:04:45;;;;;;;6.07;5.65;;;;;;;10.31;nan;99845.28;4958140;28;97325;-71
2021/01/12 06:07:13;;;;;;;6.45;5.50;;;;;;;10.33;nan;99846.22;4962099;28;97824;-69
2021/01/12 06:09:41;;;;;;;5.78;5.38;;;;;;;10.34;nan;99854.16;4959988;28;97527;-71
2021/01/12 06:12:10;;;;;;;6.28;5.68;;;;;;;10.33;nan;99835.72;4978252;28;97524;-71
2021/01/12 06:14:38;;;;;;;6.40;5.97;;;;;;;10.36;nan;99838.47;4960642;28;97352;-72
2021/01/12 06:17:10;;;;;;;6.07;5.68;;;;;;;10.38;nan;99829.81;4975809;28;98115;-70
2021/01/12 06:19:45;;;;;;;6.60;6.00;;;;;;;10.39;nan;99833.31;4975680;28;97790;-72
2021/01/12 06:22:17;;;;;;;5.72;5.43;;;;;;;10.36;nan;99833.22;4944538;28;97575;-71
2021/01/12 06:24:53;;;;;;;5.68;5.35;;;;;;;10.38;nan;99826.28;4978177;28;99170;-72
2021/01/12 06:27:24;;;;;;;5.45;5.05;;;;;;;10.35;nan;99815.66;4974683;28;99326;-71
2021/01/12 06:29:52;;;;;;;5.47;5.05;;;;;;;10.35;nan;99818.28;4960769;28;98484;-70
2021/01/12 06:32:21;;;;;;;5.15;4.85;;;;;;;10.45;nan;99810.84;4976702;28;97384;-72
2021/01/12 06:34:50;;;;;;;5.50;5.10;;;;;;;10.49;nan;99819.72;4978321;28;97878;-72
2021/01/12 06:37:19;;;;;;;4.78;4.47;;;;;;;10.53;nan;99822.50;4979634;28;99197;-70
2021/01/12 06:39:49;;;;;;;5.05;4.72;;;;;;;10.55;nan;99815.59;4977538;28;97077;-72
2021/01/12 06:42:18;;;;;;;4.85;4.43;;;;;;;10.57;nan;99798.16;4975879;28;97067;-69
2021/01/12 06:45:06;;;;;;;4.60;4.40;;;;;;;10.54;nan;99797.16;4978808;28;97921;-70
2021/01/12 06:47:34;;;;;;;3.83;3.72;;;;;;;10.49;nan;99796.09;4976628;28;97950;-70
2021/01/12 06:50:09;;;;;;;5.65;5.32;;;;;;;10.46;nan;99801.22;4978398;28;98729;-70
2021/01/12 06:52:38;;;;;;;4.10;3.90;;;;;;;10.51;nan;99804.94;4959033;28;97745;-72
2021/01/12 06:55:08;;;;;;;4.78;4.55;;;;;;;10.48;nan;99796.91;4960254;28;97599;-71
2021/01/12 06:57:46;;;;;;;4.30;4.10;;;;;;;10.48;nan;99807.41;4959115;28;97875;-69
2021/01/12 07:00:16;;;;;;;4.53;4.20;;;;;;;10.46;nan;99791.63;4958955;28;98042;-72
2021/01/12 07:02:44;;;;;;;4.53;4.32;;;;;;;10.28;nan;99790.91;4977210;28;97427;-72
2021/01/12 07:05:13;;;;;;;4.18;4.03;;;;;;;10.26;nan;99800.47;4977059;28;97274;-72
2021/01/12 07:07:42;;;;;;;4.20;3.90;;;;;;;10.27;nan;99794.41;4974417;28;98212;-72
2021/01/12 07:10:12;;;;;;;4.28;4.07;;;;;;;10.32;nan;99790.22;4976893;28;97089;-70
2021/01/12 07:12:40;;;;;;;3.55;3.45;;;;;;;10.34;nan;99792.88;4975598;28;97686;-69
2021/01/12 07:15:10;;;;;;;4.13;4.03;;;;;;;10.35;nan;99785.06;4975011;28;98049;-70
2021/01/12 07:17:42;;;;;;;4.15;3.95;;;;;;;10.28;nan;99777.78;4972003;28;99272;-68
2021/01/12 07:20:15;;;;;;;4.20;4.00;;;;;;;10.30;nan;99777.84;4976378;28;96811;-70
2021/01/12 07:22:52;;;;;;;4.20;4.05;;;;;;;10.29;nan;99782.22;4944470;28;97125;-71
2021/01/12 07:25:22;;;;;;;3.72;3.63;;;;;;;10.30;nan;99785.72;4958571;28;98333;-72
2021/01/12 07:28:03;;;;;;;4.35;4.07;;;;;;;10.29;nan;99781.31;4971171;28;99683;-72
2021/01/12 07:30:39;;;;;;;4.38;4.20;;;;;;;10.31;nan;99779.66;4973748;28;96697;-72
2021/01/12 07:33:07;;;;;;;4.32;4.05;;;;;;;10.37;nan;99777.25;4978028;28;96773;-73
2021/01/12 07:35:36;;;;;;;3.92;3.83;;;;;;;10.38;nan;99769.44;4958567;28;97979;-69
2021/01/12 07:38:04;;;;;;;3.80;3.70;;;;;;;10.42;nan;99767.84;4954491;28;98259;-71
2021/01/12 07:40:33;;;;;;;3.97;3.88;;;;;;;10.46;nan;99759.19;4958449;28;96990;-72
2021/01/12 07:43:03;;;;;;;3.80;3.70;;;;;;;10.37;nan;99774.63;4968845;28;98264;-73
2021/01/12 07:45:33;;;;;;;4.03;3.83;;;;;;;10.38;nan;99765.91;4973943;28;98234;-73
2021/01/12 07:48:01;;;;;;;4.13;4.00;;;;;;;10.44;nan;99766.16;4976125;28;101770;-72
2021/01/12 07:50:30;;;;;;;3.70;3.60;;;;;;;10.47;nan;99763.63;4958328;28;97534;-72
2021/01/12 07:52:59;;;;;;;3.63;3.53;;;;;;;10.48;nan;99770.66;4958483;28;97681;-72
2021/01/12 07:55:27;;;;;;;4.25;4.07;;;;;;;10.48;nan;99760.16;4975860;28;99153;-73
2021/01/12 07:57:57;;;;;;;3.33;3.22;;;;;;;10.47;nan;99758.38;4974839;28;98468;-74
2021/01/12 08:00:25;;;;;;;3.72;3.63;;;;;;;10.51;nan;99755.91;4974577;28;97908;-69
2021/01/12 08:02:54;;;;;;;3.47;3.20;;;;;;;10.51;nan;99750.66;4977673;28;97955;-75
2021/01/12 08:05:24;;;;;;;4.10;3.80;;;;;;;10.56;nan;99753.47;4958410;28;97113;-71
2021/01/12 08:07:59;;;;;;;4.10;3.80;;;;;;;10.56;nan;99746.50;4957830;28;97832;-72
2021/01/12 08:10:50;;;;;;;3.50;3.40;;;;;;;10.55;nan;99747.31;4977567;28;97573;-73
2021/01/12 08:13:19;;;;;;;3.63;3.53;;;;;;;10.56;nan;99745.59;4977950;28;99538;-73
2021/01/12 08:15:48;;;;;;;3.95;3.78;;;;;;;10.61;nan;99749.28;4959964;28;99151;-68
2021/01/12 08:18:16;;;;;;;3.20;3.10;;;;;;;10.64;nan;99744.13;4974785;28;97952;-74
2021/01/12 08:20:45;;;;;;;3.65;3.55;;;;;;;10.71;nan;99743.53;4975178;28;97325;-71
2021/01/12 08:23:16;;;;;;;3.40;3.30;;;;;;;10.70;nan;99741.72;4976543;28;97639;-72
2021/01/12 08:25:44;;;;;;;3.30;3.20;;;;;;;10.74;nan;99738.38;4958090;28;97859;-71
2021/01/12 08:28:15;;;;;;;3.53;3.42;;;;;;;10.74;nan;99739.28;4956923;28;97761;-72
2021/01/12 08:30:45;;;;;;;3.22;3.03;;;;;;;10.78;nan;99740.28;4957555;28;97598;-75
2021/01/12 08:33:15;;;;;;;3.13;3.03;;;;;;;10.78;nan;99737.66;4961226;28;98007;-75
2021/01/12 08:35:45;;;;;;;3.70;3.60;;;;;;;10.80;nan;99738.59;4976410;28;98427;-73
2021/01/12 08:38:14;;;;;;;3.70;3.50;;;;;;;10.80;nan;99733.34;4976168;28;98414;-71
2021/01/12 08:40:43;;;;;;;3.38;3.28;;;;;;;10.80;nan;99731.59;4977228;28;97326;-70
2021/01/12 08:43:17;;;;;;;3.45;3.35;;;;;;;10.84;nan;99730.88;4958627;28;97152;-71
2021/01/12 08:45:47;;;;;;;3.38;3.28;;;;;;;10.87;nan;99736.25;4958366;28;99288;-71
2021/01/12 08:48:15;;;;;;;3.45;3.35;;;;;;;10.87;nan;99731.00;4976060;28;99152;-72
2021/01/12 08:50:43;;;;;;;3.40;3.20;;;;;;;10.86;nan;99731.81;4976106;28;97795;-72
2021/01/12 08:53:14;;;;;;;3.30;3.20;;;;;;;10.87;nan;99732.72;4974991;28;97162;-71
2021/01/12 08:55:42;;;;;;;3.22;3.13;;;;;;;10.88;nan;99743.28;4967937;28;98467;-70
2021/01/12 08:58:10;;;;;;;3.60;3.50;;;;;;;10.95;nan;99741.75;4974228;28;100260;-72
2021/01/12 09:00:39;;;;;;;3.20;3.10;;;;;;;10.96;nan;99739.19;4976550;28;97553;-72
2021/01/12 09:03:08;;;;;;;2.97;2.95;;;;;;;10.95;nan;99732.13;4958730;28;97340;-70
2021/01/12 09:05:39;;;;;;;3.65;3.38;;;;;;;11.01;nan;99736.72;4975188;28;99163;-72
2021/01/12 09:08:08;;;;;;;3.90;3.70;;;;;;;11.04;nan;99735.06;4976533;28;99142;-73
2021/01/12 09:10:38;;;;;;;3.70;3.40;;;;;;;11.04;nan;99731.53;4974827;28;97551;-72
2021/01/12 09:13:06;;;;;;;2.80;2.80;;;;;;;11.11;nan;99725.69;4958716;28;97281;-73
2021/01/12 09:15:35;;;;;;;3.72;3.53;;;;;;;11.11;nan;99721.28;4974997;28;100971;-72
2021/01/12 09:18:08;;;;;;;2.90;2.90;;;;;;;11.12;nan;99720.47;4954958;28;98457;-72
2021/01/12 09:20:38;;;;;;;3.08;2.97;;;;;;;11.10;nan;99718.63;4955963;28;96954;-72
2021/01/12 09:23:07;;;;;;;3.20;3.10;;;;;;;11.16;nan;99718.84;4956684;28;98016;-72
2021/01/12 09:25:36;;;;;;;3.38;3.20;;;;;;;11.19;nan;99718.94;4951200;28;99576;-72
2021/01/12 09:28:08;;;;;;;3.42;3.33;;;;;;;11.22;nan;99721.69;4956793;28;98035;-73
2021/01/12 09:30:36;;;;;;;3.50;3.30;;;;;;;11.24;nan;99717.34;4956799;28;96910;-71
2021/01/12 09:33:04;;;;;;;3.50;3.30;;;;;;;11.24;nan;99720.88;4974257;28;97920;-72
2021/01/12 09:35:32;;;;;;;2.95;2.90;;;;;;;11.21;nan;99722.50;4957617;28;101460;-72
2021/01/12 09:38:00;;;;;;;3.20;3.10;;;;;;;11.24;nan;99717.34;4974048;28;97223;-71
2021/01/12 09:40:29;;;;;;;3.40;3.30;;;;;;;11.27;nan;99717.47;4976547;28;98406;-71
2021/01/12 09:42:57;;;;;;;3.08;3.08;;;;;;;11.27;nan;99712.22;4977211;28;97605;-71
2021/01/12 09:45:27;;;;;;;3.63;3.50;;;;;;;11.30;nan;99719.28;4973358;28;99256;-71
2021/01/12 09:48:02;;;;;;;2.80;2.75;;;;;;;11.31;nan;99723.72;4976269;28;99128;-73
2021/01/12 09:50:30;;;;;;;3.50;3.20;;;;;;;11.34;nan;99718.53;4961607;28;97178;-72
2021/01/12 09:52:58;;;;;;;2.92;2.83;;;;;;;11.38;nan;99716.09;4955856;28;97597;-73
2021/01/12 09:55:27;;;;;;;3.67;3.42;;;;;;;11.41;nan;99713.53;4971100;28;100877;-72
2021/01/12 09:57:55;;;;;;;3.60;3.35;;;;;;;11.45;nan;99719.78;4970714;28;97560;-73
2021/01/12 10:00:23;;;;;;;3.05;2.88;;;;;;;11.49;nan;99714.69;4952415;28;97890;-72
2021/01/12 10:02:51;;;;;;;3.00;2.90;;;;;;;11.52;nan;99714.78;4970999;28;97748;-73
2021/01/12 10:05:18;;;;;;;3.00;2.92;;;;;;;11.59;nan;99715.84;4969850;28;98345;-71
2021/01/12 10:07:45;;;;;;;3.22;3.13;;;;;;;11.63;nan;99713.38;4977611;28;97759;-72
2021/01/12 10:10:14;;;;;;;3.45;3.15;;;;;;;11.68;nan;99705.66;4975316;28;97852;-72
2021/01/12 10:12:41;;;;;;;3.17;3.08;;;;;;;11.68;nan;99706.56;4977956;28;97185;-73
2021/01/12 10:15:09;;;;;;;2.95;2.95;;;;;;;11.70;nan;99704.88;4975261;28;98242;-73
2021/01/12 10:17:37;;;;;;;2.95;2.65;;;;;;;11.72;nan;99708.44;4973533;28;97938;-73
2021/01/12 10:20:06;;;;;;;3.15;3.05;;;;;;;11.79;nan;99699.00;4955162;28;97562;-73
2021/01/12 10:22:33;;;;;;;3.40;3.10;;;;;;;11.79;nan;99699.00;4973669;28;97612;-73
2021/01/12 10:25:03;;;;;;;3.10;3.08;;;;;;;11.82;nan;99694.75;4958858;28;97846;-73
2021/01/12 10:27:37;;;;;;;3.13;3.00;;;;;;;11.84;nan;99694.78;4976983;28;98830;-72
2021/01/12 10:30:06;;;;;;;3.20;3.10;;;;;;;11.88;nan;99696.63;4972403;28;98479;-73
2021/01/12 10:32:34;;;;;;;3.00;2.90;;;;;;;11.89;nan;99695.81;4974250;28;98068;-75
2021/01/12 10:35:03;;;;;;;3.20;3.10;;;;;;;11.91;nan;99683.59;4973457;28;97854;-72
2021/01/12 10:37:31;;;;;;;3.33;3.20;;;;;;;11.93;nan;99693.31;4976447;28;97224;-72
2021/01/12 10:40:18;;;;;;;3.08;2.97;;;;;;;11.95;nan;99694.25;4977751;28;97253;-72
2021/01/12 10:42:47;;;;;;;3.42;3.17;;;;;;;11.97;nan;99689.94;4975832;28;97662;-72
2021/01/12 10:45:15;;;;;;;3.00;2.90;;;;;;;11.97;nan;99689.94;4959807;28;97461;-70
2021/01/12 10:47:46;;;;;;;2.97;2.88;;;;;;;12.02;nan;99693.56;4977357;28;97726;-72
2021/01/12 10:50:15;;;;;;;3.00;2.90;;;;;;;12.04;nan;99691.03;4976443;28;97231;-71
2021/01/12 10:52:43;;;;;;;2.83;2.72;;;;;;;12.07;nan;99676.22;4974763;28;97680;-71
2021/01/12 10:55:11;;;;;;;2.97;2.88;;;;;;;12.10;nan;99681.53;4977367;28;99175;-72
2021/01/12 10:57:43;;;;;;;2.50;2.50;;;;;;;12.07;nan;99680.56;4937884;28;100263;-73
2021/01/12 11:00:14;;;;;;;2.63;2.63;;;;;;;12.04;nan;99676.09;4958295;28;97616;-72
2021/01/12 11:02:43;;;;;;;3.30;3.20;;;;;;;12.06;nan;99673.53;4976116;28;97980;-72
2021/01/12 11:05:11;;;;;;;2.97;2.90;;;;;;;12.07;nan;99676.22;4958308;28;97182;-72
2021/01/12 11:07:40;;;;;;;2.70;2.70;;;;;;;12.02;nan;99674.28;4975775;28;100868;-73
2021/01/12 11:10:08;;;;;;;2.88;2.88;;;;;;;12.06;nan;99663.00;4952867;28;98215;-73
2021/01/12 11:12:37;;;;;;;2.67;2.67;;;;;;;12.09;nan;99665.72;4980436;28;98293;-72
2021/01/12 11:15:07;;;;;;;2.63;2.53;;;;;;;12.09;nan;99642.03;4942307;28;98894;-73
2021/01/12 11:17:38;;;;;;;2.72;2.72;;;;;;;12.13;nan;99647.41;4976542;28;100372;-72
2021/01/12 11:20:08;;;;;;;2.72;2.72;;;;;;;12.17;nan;99651.91;4959580;28;98087;-73
2021/01/12 11:22:36;;;;;;;2.60;2.60;;;;;;;12.22;nan;99639.75;4959270;28;97586;-72
2021/01/12 11:25:06;;;;;;;2.83;2.72;;;;;;;12.27;nan;99644.28;4976569;28;97246;-72
2021/01/12 11:27:35;;;;;;;2.90;2.80;;;;;;;12.29;nan;99650.47;4976987;28;96819;-71
2021/01/12 11:30:05;;;;;;;2.60;2.50;;;;;;;12.28;nan;99649.56;4958198;28;97513;-73
2021/01/12 11:32:36;;;;;;;2.60;2.55;;;;;;;12.28;nan;99648.72;4978579;28;97994;-72
2021/01/12 11:35:04;;;;;;;2.88;2.70;;;;;;;12.32;nan;99650.59;4978416;28;99257;-73
2021/01/12 11:37:32;;;;;;;2.78;2.67;;;;;;;12.32;nan;99655.84;4976689;28;97297;-73
2021/01/12 11:40:01;;;;;;;2.80;2.70;;;;;;;12.37;nan;99659.50;4958286;28;97685;-72
2021/01/12 11:42:28;;;;;;;2.72;2.72;;;;;;;12.38;nan;99661.28;4975115;28;97450;-71
2021/01/12 11:44:56;;;;;;;2.72;2.72;;;;;;;12.33;nan;99662.88;4976840;28;97921;-71
2021/01/12 11:47:23;;;;;;;2.67;2.65;;;;;;;12.38;nan;99669.16;4976794;28;97442;-71
2021/01/12 11:49:52;;;;;;;2.97;2.90;;;;;;;12.37;nan;99670.03;4976413;28;98256;-70
2021/01/12 11:52:19;;;;;;;3.40;3.30;;;;;;;12.36;nan;99668.22;4977569;28;97430;-70
2021/01/12 11:54:46;;;;;;;2.60;2.60;;;;;;;12.37;nan;99670.03;4957308;28;97999;-71